sensor_id;sensor_type;location;lat;lon;timestamp;P1;durP1;ratioP1;P2;durP2;ratioP2
19225;SDS011;9747;48.536;12.522;2023-09-30T00:02:07;19.75;;;8.52;;
19225;SDS011;9747;48.536;12.522;2023-09-30T00:04:36;18.40;;;8.40;;
19225;SDS011;9747;48.536;12.522;2023-09-30T00:07:05;17.48;;;8.75;;
19225;SDS011;9747;48.536;12.522;2023-09-30T00:09:33;19.15;;;9.30;;
19225;SDS011;9747;48.536;12.522;2023-09-30T00:12:01;17.20;;;8.30;;
19225;SDS011;9747;48.536;12.522;2023-09-30T00:14:29;18.00;;;8.90;;
19225;SDS011;9747;48.536;12.522;2023-09-30T00:16:57;15.70;;;8.18;;
19225;SDS011;9747;48.536;12.522;2023-09-30T00:19:25;15.75;;;8.48;;
19225;SDS011;9747;48.536;12.522;2023-09-30T00:21:52;16.52;;;8.75;;
19225;SDS011;9747;48.536;12.522;2023-09-30T00:24:19;17.27;;;8.63;;
19225;SDS011;9747;48.536;12.522;2023-09-30T00:26:47;17.00;;;8.80;;
19225;SDS011;9747;48.536;12.522;2023-09-30T00:29:18;15.68;;;8.45;;
19225;SDS011;9747;48.536;12.522;2023-09-30T00:31:45;17.63;;;8.18;;
19225;SDS011;9747;48.536;12.522;2023-09-30T00:34:12;18.02;;;8.82;;
19225;SDS011;9747;48.536;12.522;2023-09-30T00:36:40;17.60;;;8.38;;
19225;SDS011;9747;48.536;12.522;2023-09-30T00:39:07;16.70;;;8.20;;
19225;SDS011;9747;48.536;12.522;2023-09-30T00:41:35;17.35;;;8.90;;
19225;SDS011;9747;48.536;12.522;2023-09-30T00:44:04;15.57;;;7.93;;
19225;SDS011;9747;48.536;12.522;2023-09-30T00:46:35;15.45;;;7.60;;
19225;SDS011;9747;48.536;12.522;2023-09-30T00:49:06;18.05;;;8.45;;
19225;SDS011;9747;48.536;12.522;2023-09-30T00:51:35;17.88;;;8.15;;
19225;SDS011;9747;48.536;12.522;2023-09-30T00:54:03;16.80;;;8.15;;
19225;SDS011;9747;48.536;12.522;2023-09-30T00:56:31;17.35;;;8.57;;
19225;SDS011;9747;48.536;12.522;2023-09-30T00:58:59;16.88;;;8.20;;
19225;SDS011;9747;48.536;12.522;2023-09-30T01:01:27;14.68;;;7.93;;
19225;SDS011;9747;48.536;12.522;2023-09-30T01:03:56;15.05;;;8.05;;
19225;SDS011;9747;48.536;12.522;2023-09-30T01:06:24;15.63;;;7.78;;
19225;SDS011;9747;48.536;12.522;2023-09-30T01:08:52;14.63;;;7.95;;
19225;SDS011;9747;48.536;12.522;2023-09-30T01:11:20;14.48;;;8.10;;
19225;SDS011;9747;48.536;12.522;2023-09-30T01:13:48;16.50;;;8.65;;
19225;SDS011;9747;48.536;12.522;2023-09-30T01:16:15;16.92;;;8.60;;
19225;SDS011;9747;48.536;12.522;2023-09-30T01:18:42;15.32;;;8.18;;
19225;SDS011;9747;48.536;12.522;2023-09-30T01:21:11;15.25;;;8.02;;
19225;SDS011;9747;48.536;12.522;2023-09-30T01:23:41;17.08;;;8.00;;
19225;SDS011;9747;48.536;12.522;2023-09-30T01:26:12;17.33;;;8.68;;
19225;SDS011;9747;48.536;12.522;2023-09-30T01:28:40;16.38;;;8.35;;
19225;SDS011;9747;48.536;12.522;2023-09-30T01:31:08;17.05;;;8.68;;
19225;SDS011;9747;48.536;12.522;2023-09-30T01:33:36;16.63;;;8.30;;
19225;SDS011;9747;48.536;12.522;2023-09-30T01:36:03;17.73;;;8.77;;
19225;SDS011;9747;48.536;12.522;2023-09-30T01:38:31;17.13;;;8.35;;
19225;SDS011;9747;48.536;12.522;2023-09-30T01:41:01;16.95;;;8.63;;
19225;SDS011;9747;48.536;12.522;2023-09-30T01:43:29;18.50;;;8.68;;
19225;SDS011;9747;48.536;12.522;2023-09-30T01:45:56;20.15;;;9.20;;
19225;SDS011;9747;48.536;12.522;2023-09-30T01:48:23;15.52;;;8.32;;
19225;SDS011;9747;48.536;12.522;2023-09-30T01:50:51;16.23;;;8.23;;
19225;SDS011;9747;48.536;12.522;2023-09-30T01:53:18;16.73;;;8.38;;
19225;SDS011;9747;48.536;12.522;2023-09-30T01:55:46;16.55;;;8.65;;
19225;SDS011;9747;48.536;12.522;2023-09-30T01:58:15;16.85;;;8.52;;
19225;SDS011;9747;48.536;12.522;2023-09-30T02:00:43;18.30;;;9.35;;
19225;SDS011;9747;48.536;12.522;2023-09-30T02:03:10;18.17;;;9.10;;
19225;SDS011;9747;48.536;12.522;2023-09-30T02:05:38;18.98;;;8.95;;
19225;SDS011;9747;48.536;12.522;2023-09-30T02:08:05;18.02;;;8.23;;
19225;SDS011;9747;48.536;12.522;2023-09-30T02:10:33;18.25;;;8.27;;
19225;SDS011;9747;48.536;12.522;2023-09-30T02:13:01;21.63;;;9.40;;
19225;SDS011;9747;48.536;12.522;2023-09-30T02:15:32;16.60;;;8.23;;
19225;SDS011;9747;48.536;12.522;2023-09-30T02:17:59;17.73;;;8.55;;
19225;SDS011;9747;48.536;12.522;2023-09-30T02:20:29;16.70;;;9.13;;
19225;SDS011;9747;48.536;12.522;2023-09-30T02:22:57;16.95;;;8.48;;
19225;SDS011;9747;48.536;12.522;2023-09-30T02:25:27;18.67;;;8.95;;
19225;SDS011;9747;48.536;12.522;2023-09-30T02:27:55;17.05;;;8.40;;
19225;SDS011;9747;48.536;12.522;2023-09-30T02:30:24;17.52;;;9.05;;
19225;SDS011;9747;48.536;12.522;2023-09-30T02:32:54;19.20;;;8.52;;
19225;SDS011;9747;48.536;12.522;2023-09-30T02:35:21;15.55;;;8.45;;
19225;SDS011;9747;48.536;12.522;2023-09-30T02:37:49;16.63;;;8.52;;
19225;SDS011;9747;48.536;12.522;2023-09-30T02:40:17;17.38;;;8.70;;
19225;SDS011;9747;48.536;12.522;2023-09-30T02:42:45;16.23;;;8.20;;
19225;SDS011;9747;48.536;12.522;2023-09-30T02:45:15;17.90;;;8.60;;
19225;SDS011;9747;48.536;12.522;2023-09-30T02:47:44;15.65;;;7.63;;
19225;SDS011;9747;48.536;12.522;2023-09-30T02:50:13;17.35;;;7.72;;
19225;SDS011;9747;48.536;12.522;2023-09-30T02:52:40;15.38;;;7.75;;
19225;SDS011;9747;48.536;12.522;2023-09-30T02:55:08;18.23;;;8.75;;
19225;SDS011;9747;48.536;12.522;2023-09-30T02:57:37;14.57;;;7.53;;
19225;SDS011;9747;48.536;12.522;2023-09-30T03:00:05;14.15;;;7.80;;
19225;SDS011;9747;48.536;12.522;2023-09-30T03:02:46;14.90;;;7.55;;
19225;SDS011;9747;48.536;12.522;2023-09-30T03:05:15;15.45;;;7.72;;
19225;SDS011;9747;48.536;12.522;2023-09-30T03:07:42;14.13;;;7.22;;
19225;SDS011;9747;48.536;12.522;2023-09-30T03:10:10;16.67;;;8.05;;
19225;SDS011;9747;48.536;12.522;2023-09-30T03:12:45;14.32;;;7.70;;
19225;SDS011;9747;48.536;12.522;2023-09-30T03:15:13;15.30;;;7.72;;
19225;SDS011;9747;48.536;12.522;2023-09-30T03:17:41;13.25;;;7.05;;
19225;SDS011;9747;48.536;12.522;2023-09-30T03:20:09;14.77;;;7.60;;
19225;SDS011;9747;48.536;12.522;2023-09-30T03:22:41;14.45;;;7.20;;
19225;SDS011;9747;48.536;12.522;2023-09-30T03:25:09;15.20;;;7.68;;
19225;SDS011;9747;48.536;12.522;2023-09-30T03:27:37;14.07;;;7.68;;
19225;SDS011;9747;48.536;12.522;2023-09-30T03:30:06;16.20;;;7.32;;
19225;SDS011;9747;48.536;12.522;2023-09-30T03:32:37;14.57;;;7.22;;
19225;SDS011;9747;48.536;12.522;2023-09-30T03:35:04;13.63;;;7.32;;
19225;SDS011;9747;48.536;12.522;2023-09-30T03:37:35;16.20;;;7.75;;
19225;SDS011;9747;48.536;12.522;2023-09-30T03:40:05;13.18;;;6.80;;
19225;SDS011;9747;48.536;12.522;2023-09-30T03:42:39;15.00;;;7.47;;
19225;SDS011;9747;48.536;12.522;2023-09-30T03:45:09;13.63;;;7.05;;
19225;SDS011;9747;48.536;12.522;2023-09-30T03:47:39;12.95;;;6.88;;
19225;SDS011;9747;48.536;12.522;2023-09-30T03:50:07;14.82;;;7.15;;
19225;SDS011;9747;48.536;12.522;2023-09-30T03:52:40;13.73;;;7.10;;
19225;SDS011;9747;48.536;12.522;2023-09-30T03:55:11;15.65;;;7.50;;
19225;SDS011;9747;48.536;12.522;2023-09-30T03:57:40;12.68;;;6.75;;
19225;SDS011;9747;48.536;12.522;2023-09-30T04:00:08;14.68;;;6.90;;
19225;SDS011;9747;48.536;12.522;2023-09-30T04:02:41;13.50;;;6.82;;
19225;SDS011;9747;48.536;12.522;2023-09-30T04:05:08;14.77;;;7.05;;
19225;SDS011;9747;48.536;12.522;2023-09-30T04:07:37;12.07;;;6.25;;
19225;SDS011;9747;48.536;12.522;2023-09-30T04:10:07;12.13;;;6.50;;
19225;SDS011;9747;48.536;12.522;2023-09-30T04:12:37;13.68;;;6.63;;
19225;SDS011;9747;48.536;12.522;2023-09-30T04:15:05;14.77;;;6.97;;
19225;SDS011;9747;48.536;12.522;2023-09-30T04:17:37;11.25;;;6.32;;
19225;SDS011;9747;48.536;12.522;2023-09-30T04:20:05;14.30;;;7.00;;
19225;SDS011;9747;48.536;12.522;2023-09-30T04:22:36;13.27;;;6.43;;
19225;SDS011;9747;48.536;12.522;2023-09-30T04:25:04;13.07;;;6.07;;
19225;SDS011;9747;48.536;12.522;2023-09-30T04:27:37;14.88;;;6.57;;
19225;SDS011;9747;48.536;12.522;2023-09-30T04:30:05;13.85;;;6.38;;
19225;SDS011;9747;48.536;12.522;2023-09-30T04:32:36;11.50;;;6.10;;
19225;SDS011;9747;48.536;12.522;2023-09-30T04:35:04;12.70;;;6.03;;
19225;SDS011;9747;48.536;12.522;2023-09-30T04:37:33;15.27;;;6.70;;
19225;SDS011;9747;48.536;12.522;2023-09-30T04:40:02;11.63;;;6.20;;
19225;SDS011;9747;48.536;12.522;2023-09-30T04:42:34;10.88;;;5.95;;
19225;SDS011;9747;48.536;12.522;2023-09-30T04:45:04;11.38;;;5.82;;
19225;SDS011;9747;48.536;12.522;2023-09-30T04:47:35;11.32;;;6.43;;
19225;SDS011;9747;48.536;12.522;2023-09-30T04:50:05;13.18;;;6.53;;
19225;SDS011;9747;48.536;12.522;2023-09-30T04:52:33;11.02;;;6.07;;
19225;SDS011;9747;48.536;12.522;2023-09-30T04:55:01;11.45;;;6.10;;
19225;SDS011;9747;48.536;12.522;2023-09-30T04:57:29;13.23;;;6.25;;
19225;SDS011;9747;48.536;12.522;2023-09-30T04:59:58;10.65;;;6.03;;
19225;SDS011;9747;48.536;12.522;2023-09-30T05:02:26;13.85;;;6.65;;
19225;SDS011;9747;48.536;12.522;2023-09-30T05:04:54;11.32;;;6.00;;
19225;SDS011;9747;48.536;12.522;2023-09-30T05:07:22;13.90;;;6.45;;
19225;SDS011;9747;48.536;12.522;2023-09-30T05:09:49;14.07;;;6.45;;
19225;SDS011;9747;48.536;12.522;2023-09-30T05:12:19;12.57;;;6.35;;
19225;SDS011;9747;48.536;12.522;2023-09-30T05:14:46;11.60;;;5.97;;
19225;SDS011;9747;48.536;12.522;2023-09-30T05:17:15;11.88;;;6.15;;
19225;SDS011;9747;48.536;12.522;2023-09-30T05:19:42;12.80;;;6.35;;
19225;SDS011;9747;48.536;12.522;2023-09-30T05:22:10;13.20;;;6.43;;
19225;SDS011;9747;48.536;12.522;2023-09-30T05:24:37;11.10;;;5.95;;
19225;SDS011;9747;48.536;12.522;2023-09-30T05:27:04;13.68;;;6.35;;
19225;SDS011;9747;48.536;12.522;2023-09-30T05:29:32;11.18;;;5.70;;
19225;SDS011;9747;48.536;12.522;2023-09-30T05:31:59;11.07;;;5.88;;
19225;SDS011;9747;48.536;12.522;2023-09-30T05:34:29;13.38;;;6.22;;
19225;SDS011;9747;48.536;12.522;2023-09-30T05:36:57;12.80;;;5.68;;
19225;SDS011;9747;48.536;12.522;2023-09-30T05:39:25;11.20;;;6.07;;
19225;SDS011;9747;48.536;12.522;2023-09-30T05:41:53;10.68;;;5.50;;
19225;SDS011;9747;48.536;12.522;2023-09-30T05:44:21;11.90;;;6.28;;
19225;SDS011;9747;48.536;12.522;2023-09-30T05:46:48;11.40;;;5.38;;
19225;SDS011;9747;48.536;12.522;2023-09-30T05:49:16;13.77;;;6.30;;
19225;SDS011;9747;48.536;12.522;2023-09-30T05:51:45;11.98;;;5.82;;
19225;SDS011;9747;48.536;12.522;2023-09-30T05:54:12;10.70;;;5.78;;
19225;SDS011;9747;48.536;12.522;2023-09-30T05:56:40;12.68;;;5.82;;
19225;SDS011;9747;48.536;12.522;2023-09-30T05:59:08;11.70;;;6.07;;
19225;SDS011;9747;48.536;12.522;2023-09-30T06:01:35;10.98;;;6.43;;
19225;SDS011;9747;48.536;12.522;2023-09-30T06:04:04;11.43;;;6.43;;
19225;SDS011;9747;48.536;12.522;2023-09-30T06:06:32;12.13;;;6.53;;
19225;SDS011;9747;48.536;12.522;2023-09-30T06:09:00;9.93;;;5.82;;
19225;SDS011;9747;48.536;12.522;2023-09-30T06:11:28;13.80;;;6.70;;
19225;SDS011;9747;48.536;12.522;2023-09-30T06:13:55;14.00;;;7.40;;
19225;SDS011;9747;48.536;12.522;2023-09-30T06:16:24;12.63;;;6.97;;
19225;SDS011;9747;48.536;12.522;2023-09-30T06:18:51;13.07;;;6.47;;
19225;SDS011;9747;48.536;12.522;2023-09-30T06:21:19;13.48;;;7.18;;
19225;SDS011;9747;48.536;12.522;2023-09-30T06:23:47;12.32;;;7.05;;
19225;SDS011;9747;48.536;12.522;2023-09-30T06:26:17;14.02;;;7.50;;
19225;SDS011;9747;48.536;12.522;2023-09-30T06:28:46;14.27;;;7.28;;
19225;SDS011;9747;48.536;12.522;2023-09-30T06:31:13;13.48;;;7.65;;
19225;SDS011;9747;48.536;12.522;2023-09-30T06:33:41;16.20;;;8.00;;
19225;SDS011;9747;48.536;12.522;2023-09-30T06:36:09;16.23;;;8.50;;
19225;SDS011;9747;48.536;12.522;2023-09-30T06:38:39;15.38;;;8.07;;
19225;SDS011;9747;48.536;12.522;2023-09-30T06:41:07;15.88;;;8.10;;
19225;SDS011;9747;48.536;12.522;2023-09-30T06:43:35;15.18;;;8.43;;
19225;SDS011;9747;48.536;12.522;2023-09-30T06:46:06;16.17;;;7.45;;
19225;SDS011;9747;48.536;12.522;2023-09-30T06:48:34;14.50;;;7.88;;
19225;SDS011;9747;48.536;12.522;2023-09-30T06:51:02;14.82;;;8.38;;
19225;SDS011;9747;48.536;12.522;2023-09-30T06:53:30;13.77;;;7.35;;
19225;SDS011;9747;48.536;12.522;2023-09-30T06:55:57;13.70;;;7.97;;
19225;SDS011;9747;48.536;12.522;2023-09-30T06:58:24;15.35;;;7.43;;
19225;SDS011;9747;48.536;12.522;2023-09-30T07:00:53;13.00;;;7.57;;
19225;SDS011;9747;48.536;12.522;2023-09-30T07:03:21;13.60;;;7.97;;
19225;SDS011;9747;48.536;12.522;2023-09-30T07:05:48;13.25;;;7.50;;
19225;SDS011;9747;48.536;12.522;2023-09-30T07:08:16;14.05;;;7.10;;
19225;SDS011;9747;48.536;12.522;2023-09-30T07:10:43;14.32;;;7.00;;
19225;SDS011;9747;48.536;12.522;2023-09-30T07:13:14;13.23;;;6.97;;
19225;SDS011;9747;48.536;12.522;2023-09-30T07:15:43;14.75;;;7.38;;
19225;SDS011;9747;48.536;12.522;2023-09-30T07:18:12;14.23;;;7.00;;
19225;SDS011;9747;48.536;12.522;2023-09-30T07:20:40;11.85;;;7.30;;
19225;SDS011;9747;48.536;12.522;2023-09-30T07:23:07;13.38;;;7.10;;
19225;SDS011;9747;48.536;12.522;2023-09-30T07:25:35;13.38;;;6.93;;
19225;SDS011;9747;48.536;12.522;2023-09-30T07:28:02;12.70;;;6.57;;
19225;SDS011;9747;48.536;12.522;2023-09-30T07:30:36;12.75;;;6.65;;
19225;SDS011;9747;48.536;12.522;2023-09-30T07:33:04;13.13;;;6.68;;
19225;SDS011;9747;48.536;12.522;2023-09-30T07:35:33;12.00;;;6.65;;
19225;SDS011;9747;48.536;12.522;2023-09-30T07:38:02;12.18;;;6.35;;
19225;SDS011;9747;48.536;12.522;2023-09-30T07:40:30;12.15;;;6.70;;
19225;SDS011;9747;48.536;12.522;2023-09-30T07:42:59;12.88;;;6.35;;
19225;SDS011;9747;48.536;12.522;2023-09-30T07:45:26;11.45;;;6.35;;
19225;SDS011;9747;48.536;12.522;2023-09-30T07:47:54;13.45;;;6.68;;
19225;SDS011;9747;48.536;12.522;2023-09-30T07:50:23;14.95;;;6.65;;
19225;SDS011;9747;48.536;12.522;2023-09-30T07:52:52;12.88;;;6.88;;
19225;SDS011;9747;48.536;12.522;2023-09-30T07:55:19;10.68;;;5.70;;
19225;SDS011;9747;48.536;12.522;2023-09-30T07:57:47;11.95;;;6.35;;
19225;SDS011;9747;48.536;12.522;2023-09-30T08:00:15;11.07;;;6.00;;
19225;SDS011;9747;48.536;12.522;2023-09-30T08:02:43;9.90;;;5.72;;
19225;SDS011;9747;48.536;12.522;2023-09-30T08:05:10;10.90;;;6.00;;
19225;SDS011;9747;48.536;12.522;2023-09-30T08:07:37;12.30;;;5.80;;
19225;SDS011;9747;48.536;12.522;2023-09-30T08:10:07;9.57;;;5.25;;
19225;SDS011;9747;48.536;12.522;2023-09-30T08:12:38;11.13;;;6.32;;
19225;SDS011;9747;48.536;12.522;2023-09-30T08:15:06;10.07;;;5.45;;
19225;SDS011;9747;48.536;12.522;2023-09-30T08:17:36;9.77;;;5.38;;
19225;SDS011;9747;48.536;12.522;2023-09-30T08:20:04;10.77;;;5.40;;
19225;SDS011;9747;48.536;12.522;2023-09-30T08:22:34;9.38;;;4.82;;
19225;SDS011;9747;48.536;12.522;2023-09-30T08:25:01;9.63;;;5.55;;
19225;SDS011;9747;48.536;12.522;2023-09-30T08:27:32;12.27;;;5.63;;
19225;SDS011;9747;48.536;12.522;2023-09-30T08:30:00;12.23;;;5.65;;
19225;SDS011;9747;48.536;12.522;2023-09-30T08:32:31;9.48;;;5.32;;
19225;SDS011;9747;48.536;12.522;2023-09-30T08:35:00;9.18;;;5.20;;
19225;SDS011;9747;48.536;12.522;2023-09-30T08:37:29;7.55;;;4.72;;
19225;SDS011;9747;48.536;12.522;2023-09-30T08:39:57;8.73;;;4.63;;
19225;SDS011;9747;48.536;12.522;2023-09-30T08:42:25;10.90;;;4.82;;
19225;SDS011;9747;48.536;12.522;2023-09-30T08:44:59;9.85;;;4.47;;
19225;SDS011;9747;48.536;12.522;2023-09-30T08:47:26;8.45;;;4.53;;
19225;SDS011;9747;48.536;12.522;2023-09-30T08:49:54;6.88;;;4.53;;
19225;SDS011;9747;48.536;12.522;2023-09-30T08:52:31;7.78;;;4.65;;
19225;SDS011;9747;48.536;12.522;2023-09-30T08:54:59;8.18;;;4.70;;
19225;SDS011;9747;48.536;12.522;2023-09-30T08:57:27;6.90;;;4.53;;
19225;SDS011;9747;48.536;12.522;2023-09-30T08:59:56;7.32;;;4.28;;
19225;SDS011;9747;48.536;12.522;2023-09-30T09:02:25;7.30;;;4.32;;
19225;SDS011;9747;48.536;12.522;2023-09-30T09:04:54;8.68;;;4.40;;
19225;SDS011;9747;48.536;12.522;2023-09-30T09:07:21;7.38;;;4.20;;
19225;SDS011;9747;48.536;12.522;2023-09-30T09:10:02;6.53;;;3.85;;
19225;SDS011;9747;48.536;12.522;2023-09-30T09:12:31;7.97;;;4.00;;
19225;SDS011;9747;48.536;12.522;2023-09-30T09:15:01;5.97;;;4.03;;
19225;SDS011;9747;48.536;12.522;2023-09-30T09:17:39;6.60;;;3.95;;
19225;SDS011;9747;48.536;12.522;2023-09-30T09:20:08;7.78;;;4.43;;
19225;SDS011;9747;48.536;12.522;2023-09-30T09:22:39;8.80;;;4.47;;
19225;SDS011;9747;48.536;12.522;2023-09-30T09:25:08;11.10;;;5.70;;
19225;SDS011;9747;48.536;12.522;2023-09-30T09:27:36;21.60;;;11.50;;
19225;SDS011;9747;48.536;12.522;2023-09-30T09:30:15;60.70;;;30.48;;
19225;SDS011;9747;48.536;12.522;2023-09-30T09:32:59;140.45;;;66.90;;
19225;SDS011;9747;48.536;12.522;2023-09-30T09:35:30;226.13;;;109.13;;
19225;SDS011;9747;48.536;12.522;2023-09-30T09:37:59;247.73;;;124.07;;
19225;SDS011;9747;48.536;12.522;2023-09-30T09:40:28;360.85;;;181.68;;
19225;SDS011;9747;48.536;12.522;2023-09-30T09:42:57;331.27;;;165.25;;
19225;SDS011;9747;48.536;12.522;2023-09-30T09:45:28;337.42;;;162.82;;
19225;SDS011;9747;48.536;12.522;2023-09-30T09:47:58;389.13;;;186.73;;
19225;SDS011;9747;48.536;12.522;2023-09-30T09:50:26;532.95;;;269.65;;
19225;SDS011;9747;48.536;12.522;2023-09-30T09:52:54;641.22;;;329.80;;
19225;SDS011;9747;48.536;12.522;2023-09-30T09:55:24;685.42;;;368.50;;
19225;SDS011;9747;48.536;12.522;2023-09-30T09:57:53;764.47;;;403.10;;
19225;SDS011;9747;48.536;12.522;2023-09-30T10:00:21;704.10;;;379.77;;
19225;SDS011;9747;48.536;12.522;2023-09-30T10:02:51;553.38;;;287.00;;
19225;SDS011;9747;48.536;12.522;2023-09-30T10:05:20;561.90;;;287.75;;
19225;SDS011;9747;48.536;12.522;2023-09-30T10:07:50;534.25;;;266.95;;
19225;SDS011;9747;48.536;12.522;2023-09-30T10:10:20;436.05;;;221.82;;
19225;SDS011;9747;48.536;12.522;2023-09-30T10:12:48;382.27;;;182.40;;
19225;SDS011;9747;48.536;12.522;2023-09-30T10:18:06;262.52;;;126.30;;
19225;SDS011;9747;48.536;12.522;2023-09-30T10:20:36;194.48;;;95.15;;
19225;SDS011;9747;48.536;12.522;2023-09-30T10:23:18;279.00;;;128.75;;
19225;SDS011;9747;48.536;12.522;2023-09-30T10:25:51;254.95;;;125.53;;
19225;SDS011;9747;48.536;12.522;2023-09-30T10:28:32;284.35;;;136.18;;
19225;SDS011;9747;48.536;12.522;2023-09-30T10:31:08;224.02;;;110.97;;
19225;SDS011;9747;48.536;12.522;2023-09-30T10:36:47;214.77;;;106.97;;
19225;SDS011;9747;48.536;12.522;2023-09-30T10:42:47;121.57;;;60.55;;
19225;SDS011;9747;48.536;12.522;2023-09-30T10:48:32;94.63;;;48.40;;
19225;SDS011;9747;48.536;12.522;2023-09-30T10:51:12;101.32;;;52.60;;
19225;SDS011;9747;48.536;12.522;2023-09-30T10:53:41;70.47;;;38.05;;
19225;SDS011;9747;48.536;12.522;2023-09-30T10:56:11;75.78;;;40.33;;
19225;SDS011;9747;48.536;12.522;2023-09-30T10:58:39;69.47;;;38.10;;
19225;SDS011;9747;48.536;12.522;2023-09-30T11:01:11;61.95;;;33.85;;
19225;SDS011;9747;48.536;12.522;2023-09-30T11:03:40;42.10;;;22.40;;
19225;SDS011;9747;48.536;12.522;2023-09-30T11:06:08;40.08;;;22.45;;
19225;SDS011;9747;48.536;12.522;2023-09-30T11:08:44;60.08;;;31.08;;
19225;SDS011;9747;48.536;12.522;2023-09-30T11:11:16;35.50;;;20.83;;
19225;SDS011;9747;48.536;12.522;2023-09-30T11:13:44;44.95;;;24.15;;
19225;SDS011;9747;48.536;12.522;2023-09-30T11:16:11;40.17;;;22.92;;
19225;SDS011;9747;48.536;12.522;2023-09-30T11:18:38;44.42;;;24.05;;
19225;SDS011;9747;48.536;12.522;2023-09-30T11:21:07;39.67;;;21.35;;
19225;SDS011;9747;48.536;12.522;2023-09-30T11:23:38;31.00;;;17.63;;
19225;SDS011;9747;48.536;12.522;2023-09-30T11:26:06;26.27;;;15.07;;
19225;SDS011;9747;48.536;12.522;2023-09-30T11:28:41;30.30;;;16.73;;
19225;SDS011;9747;48.536;12.522;2023-09-30T11:31:11;26.88;;;15.15;;
19225;SDS011;9747;48.536;12.522;2023-09-30T11:33:47;29.08;;;15.95;;
19225;SDS011;9747;48.536;12.522;2023-09-30T11:36:19;25.92;;;14.85;;
19225;SDS011;9747;48.536;12.522;2023-09-30T11:38:49;24.08;;;14.30;;
19225;SDS011;9747;48.536;12.522;2023-09-30T11:41:18;17.67;;;11.73;;
19225;SDS011;9747;48.536;12.522;2023-09-30T11:46:48;21.40;;;12.73;;
19225;SDS011;9747;48.536;12.522;2023-09-30T11:49:24;17.48;;;10.93;;
19225;SDS011;9747;48.536;12.522;2023-09-30T11:51:56;16.23;;;10.20;;
19225;SDS011;9747;48.536;12.522;2023-09-30T11:54:31;18.40;;;9.60;;
19225;SDS011;9747;48.536;12.522;2023-09-30T11:57:02;15.70;;;10.13;;
19225;SDS011;9747;48.536;12.522;2023-09-30T11:59:30;15.15;;;9.45;;
19225;SDS011;9747;48.536;12.522;2023-09-30T12:01:57;16.00;;;9.10;;
19225;SDS011;9747;48.536;12.522;2023-09-30T12:04:25;13.13;;;8.32;;
19225;SDS011;9747;48.536;12.522;2023-09-30T12:06:52;13.15;;;8.20;;
19225;SDS011;9747;48.536;12.522;2023-09-30T12:09:20;13.00;;;8.13;;
19225;SDS011;9747;48.536;12.522;2023-09-30T12:11:52;13.10;;;7.75;;
19225;SDS011;9747;48.536;12.522;2023-09-30T12:14:20;12.45;;;7.90;;
19225;SDS011;9747;48.536;12.522;2023-09-30T12:16:48;13.35;;;7.90;;
19225;SDS011;9747;48.536;12.522;2023-09-30T12:19:16;12.30;;;7.40;;
19225;SDS011;9747;48.536;12.522;2023-09-30T12:21:44;11.88;;;7.47;;
19225;SDS011;9747;48.536;12.522;2023-09-30T12:24:13;10.75;;;7.10;;
19225;SDS011;9747;48.536;12.522;2023-09-30T12:26:42;10.45;;;7.20;;
19225;SDS011;9747;48.536;12.522;2023-09-30T12:29:14;13.18;;;7.63;;
19225;SDS011;9747;48.536;12.522;2023-09-30T12:31:42;8.10;;;5.47;;
19225;SDS011;9747;48.536;12.522;2023-09-30T12:34:10;11.68;;;6.13;;
19225;SDS011;9747;48.536;12.522;2023-09-30T12:36:39;10.35;;;6.30;;
19225;SDS011;9747;48.536;12.522;2023-09-30T12:39:07;8.55;;;6.07;;
19225;SDS011;9747;48.536;12.522;2023-09-30T12:41:37;9.25;;;5.53;;
19225;SDS011;9747;48.536;12.522;2023-09-30T12:44:04;8.98;;;5.93;;
19225;SDS011;9747;48.536;12.522;2023-09-30T12:46:33;8.80;;;5.80;;
19225;SDS011;9747;48.536;12.522;2023-09-30T12:49:02;9.30;;;5.25;;
19225;SDS011;9747;48.536;12.522;2023-09-30T12:51:30;6.45;;;4.53;;
19225;SDS011;9747;48.536;12.522;2023-09-30T12:53:57;8.63;;;5.72;;
19225;SDS011;9747;48.536;12.522;2023-09-30T12:56:25;7.75;;;5.28;;
19225;SDS011;9747;48.536;12.522;2023-09-30T12:58:54;7.63;;;4.88;;
19225;SDS011;9747;48.536;12.522;2023-09-30T13:01:21;7.38;;;5.28;;
19225;SDS011;9747;48.536;12.522;2023-09-30T13:03:50;8.10;;;4.82;;
19225;SDS011;9747;48.536;12.522;2023-09-30T13:06:18;8.25;;;5.35;;
19225;SDS011;9747;48.536;12.522;2023-09-30T13:08:46;7.57;;;5.03;;
19225;SDS011;9747;48.536;12.522;2023-09-30T13:11:14;7.75;;;5.10;;
19225;SDS011;9747;48.536;12.522;2023-09-30T13:13:41;7.75;;;4.90;;
19225;SDS011;9747;48.536;12.522;2023-09-30T13:16:10;7.65;;;5.07;;
19225;SDS011;9747;48.536;12.522;2023-09-30T13:18:38;6.82;;;4.80;;
19225;SDS011;9747;48.536;12.522;2023-09-30T13:21:07;7.53;;;4.65;;
19225;SDS011;9747;48.536;12.522;2023-09-30T13:23:37;7.53;;;4.68;;
19225;SDS011;9747;48.536;12.522;2023-09-30T13:26:04;7.68;;;5.20;;
19225;SDS011;9747;48.536;12.522;2023-09-30T13:28:32;7.68;;;4.68;;
19225;SDS011;9747;48.536;12.522;2023-09-30T13:31:00;8.90;;;4.90;;
19225;SDS011;9747;48.536;12.522;2023-09-30T13:33:27;6.88;;;4.65;;
19225;SDS011;9747;48.536;12.522;2023-09-30T13:35:54;6.07;;;4.40;;
19225;SDS011;9747;48.536;12.522;2023-09-30T13:38:23;9.30;;;4.22;;
19225;SDS011;9747;48.536;12.522;2023-09-30T13:40:50;7.70;;;5.05;;
19225;SDS011;9747;48.536;12.522;2023-09-30T13:43:18;6.20;;;4.63;;
19225;SDS011;9747;48.536;12.522;2023-09-30T13:45:45;6.22;;;4.57;;
19225;SDS011;9747;48.536;12.522;2023-09-30T13:48:13;6.72;;;4.57;;
19225;SDS011;9747;48.536;12.522;2023-09-30T13:50:41;7.30;;;4.22;;
19225;SDS011;9747;48.536;12.522;2023-09-30T13:53:08;5.97;;;3.97;;
19225;SDS011;9747;48.536;12.522;2023-09-30T13:55:38;8.10;;;4.60;;
19225;SDS011;9747;48.536;12.522;2023-09-30T13:58:06;6.20;;;4.10;;
19225;SDS011;9747;48.536;12.522;2023-09-30T14:00:34;6.45;;;4.13;;
19225;SDS011;9747;48.536;12.522;2023-09-30T14:03:01;6.28;;;4.38;;
19225;SDS011;9747;48.536;12.522;2023-09-30T14:05:30;6.80;;;4.63;;
19225;SDS011;9747;48.536;12.522;2023-09-30T14:07:57;7.97;;;4.53;;
19225;SDS011;9747;48.536;12.522;2023-09-30T14:10:27;6.57;;;4.15;;
19225;SDS011;9747;48.536;12.522;2023-09-30T14:12:55;6.97;;;4.22;;
19225;SDS011;9747;48.536;12.522;2023-09-30T14:15:23;5.68;;;3.90;;
19225;SDS011;9747;48.536;12.522;2023-09-30T14:17:53;5.80;;;3.90;;
19225;SDS011;9747;48.536;12.522;2023-09-30T14:20:21;6.30;;;3.90;;
19225;SDS011;9747;48.536;12.522;2023-09-30T14:22:48;6.68;;;4.25;;
19225;SDS011;9747;48.536;12.522;2023-09-30T14:25:16;6.65;;;4.53;;
19225;SDS011;9747;48.536;12.522;2023-09-30T14:27:44;6.97;;;4.65;;
19225;SDS011;9747;48.536;12.522;2023-09-30T14:30:13;6.10;;;4.18;;
19225;SDS011;9747;48.536;12.522;2023-09-30T14:32:41;5.75;;;3.72;;
19225;SDS011;9747;48.536;12.522;2023-09-30T14:35:08;6.68;;;4.45;;
19225;SDS011;9747;48.536;12.522;2023-09-30T14:37:36;5.63;;;3.80;;
19225;SDS011;9747;48.536;12.522;2023-09-30T14:40:03;5.05;;;3.80;;
19225;SDS011;9747;48.536;12.522;2023-09-30T14:42:35;4.07;;;3.40;;
19225;SDS011;9747;48.536;12.522;2023-09-30T14:45:03;6.28;;;4.10;;
19225;SDS011;9747;48.536;12.522;2023-09-30T14:47:33;5.93;;;4.00;;
19225;SDS011;9747;48.536;12.522;2023-09-30T14:50:00;6.82;;;4.03;;
19225;SDS011;9747;48.536;12.522;2023-09-30T14:52:28;5.25;;;3.50;;
19225;SDS011;9747;48.536;12.522;2023-09-30T14:54:55;5.50;;;3.85;;
19225;SDS011;9747;48.536;12.522;2023-09-30T14:57:23;4.90;;;3.72;;
19225;SDS011;9747;48.536;12.522;2023-09-30T14:59:50;5.88;;;3.92;;